createdAt,value
2017-01-12T00:00:21.408Z,0
2017-01-12T00:01:20.231Z,0
2017-01-12T00:02:20.544Z,0
2017-01-12T00:03:20.604Z,0
2017-01-12T00:04:21.005Z,0
2017-01-12T00:05:20.618Z,0
2017-01-12T00:06:20.178Z,0
2017-01-12T00:07:20.132Z,0
2017-01-12T00:08:20.622Z,0
2017-01-12T00:09:20.354Z,0
2017-01-12T00:10:20.999Z,0
2017-01-12T00:11:21.154Z,0
2017-01-12T00:12:20.714Z,0
2017-01-12T00:13:21.223Z,0
2017-01-12T00:14:20.337Z,0
2017-01-12T00:15:20.391Z,0
2017-01-12T00:16:20.050Z,0
2017-01-12T00:17:21.149Z,0
2017-01-12T00:18:20.496Z,0
2017-01-12T00:19:21.167Z,0
2017-01-12T00:20:20.428Z,0
2017-01-12T00:21:20.787Z,0
2017-01-12T00:22:20.734Z,0
2017-01-12T00:23:20.398Z,0
2017-01-12T00:24:20.453Z,0
2017-01-12T00:25:20.408Z,0
2017-01-12T00:26:20.366Z,0
2017-01-12T00:27:21.541Z,0
2017-01-12T00:28:20.778Z,0
2017-01-12T00:29:20.887Z,0
2017-01-12T00:30:20.457Z,0
2017-01-12T00:31:20.847Z,0
2017-01-12T00:32:21.255Z,0
2017-01-12T00:33:20.916Z,0
2017-01-12T00:34:20.423Z,0
2017-01-12T00:35:20.926Z,0
2017-01-12T00:36:20.885Z,0
2017-01-12T00:37:20.495Z,0
2017-01-12T00:38:20.901Z,0
2017-01-12T00:39:20.561Z,0
2017-01-12T00:40:20.480Z,0
2017-01-12T00:41:20.780Z,0
2017-01-12T00:42:20.933Z,0
2017-01-12T00:43:20.937Z,0
2017-01-12T00:44:20.600Z,0
2017-01-12T00:45:20.846Z,0
2017-01-12T00:46:20.955Z,0
2017-01-12T00:47:20.914Z,0
2017-01-12T00:48:21.414Z,0
2017-01-12T00:49:20.975Z,0
2017-01-12T00:50:20.587Z,0
2017-01-12T00:51:20.643Z,0
2017-01-12T00:52:20.501Z,0
2017-01-12T00:53:20.952Z,0
2017-01-12T00:54:20.319Z,0
2017-01-12T00:55:21.315Z,0
2017-01-12T00:56:20.625Z,0
2017-01-12T00:57:21.128Z,0
2017-01-12T00:58:35.372Z,0
2017-01-12T00:59:20.996Z,0
2017-01-12T01:00:21.598Z,0
2017-01-12T01:01:20.710Z,0
2017-01-12T01:02:21.064Z,0
2017-01-12T01:03:20.628Z,0
2017-01-12T01:04:20.635Z,0
2017-01-12T01:05:21.135Z,0
2017-01-12T01:06:21.792Z,0
2017-01-12T01:07:21.097Z,0
2017-01-12T01:08:21.503Z,0
2017-01-12T01:09:20.718Z,0
2017-01-12T01:10:20.593Z,0
2017-01-12T01:11:20.783Z,0
2017-01-12T01:12:20.739Z,0
2017-01-12T01:13:21.238Z,0
2017-01-12T01:14:21.150Z,0
2017-01-12T01:15:21.657Z,0
2017-01-12T01:16:20.726Z,0
2017-01-12T01:17:21.217Z,0
2017-01-12T01:18:21.205Z,0
2017-01-12T01:19:21.186Z,0
2017-01-12T01:20:21.636Z,0
2017-01-12T01:21:21.221Z,0
2017-01-12T01:22:21.454Z,0
2017-01-12T01:23:20.816Z,0
2017-01-12T01:24:21.673Z,0
2017-01-12T01:25:20.777Z,0
2017-01-12T01:26:20.396Z,0
2017-01-12T01:27:20.892Z,0
2017-01-12T01:28:20.399Z,0
2017-01-12T01:29:21.254Z,0
2017-01-12T01:30:21.013Z,0
2017-01-12T01:31:20.820Z,0
2017-01-12T01:32:21.620Z,0
2017-01-12T01:33:20.935Z,0
2017-01-12T01:34:20.846Z,0
2017-01-12T01:35:20.898Z,0
2017-01-12T01:36:21.155Z,0
2017-01-12T01:37:21.364Z,0
2017-01-12T01:38:21.312Z,0
2017-01-12T01:39:20.932Z,0
2017-01-12T01:40:21.880Z,0
2017-01-12T01:41:23.240Z,0
2017-01-12T01:42:21.697Z,0
2017-01-12T01:43:20.904Z,0
2017-01-12T01:44:20.968Z,0
2017-01-12T01:45:21.758Z,0
2017-01-12T01:46:21.384Z,0
2017-01-12T01:47:21.003Z,60
2017-01-12T01:48:21.344Z,0
2017-01-12T01:49:21.442Z,0
2017-01-12T01:50:21.651Z,0
2017-01-12T01:51:21.113Z,0
2017-01-12T01:52:21.810Z,0
2017-01-12T01:53:20.606Z,0
2017-01-12T01:54:21.428Z,0
2017-01-12T01:55:21.438Z,0
2017-01-12T01:56:21.146Z,0
2017-01-12T01:57:21.457Z,0
2017-01-12T01:58:21.213Z,0
2017-01-12T01:59:21.122Z,0
2017-01-12T02:00:21.023Z,0
2017-01-12T02:01:20.734Z,0
2017-01-12T02:02:21.092Z,0
2017-01-12T02:03:21.895Z,0
2017-01-12T02:04:21.600Z,0
2017-01-12T02:05:21.508Z,0
2017-01-12T02:06:21.518Z,0
2017-01-12T02:07:21.472Z,0
2017-01-12T02:08:21.235Z,0
2017-01-12T02:09:21.836Z,0
2017-01-12T02:10:21.096Z,0
2017-01-12T02:11:21.549Z,0
2017-01-12T02:12:21.013Z,0
2017-01-12T02:13:21.462Z,0
2017-01-12T02:14:21.524Z,0
2017-01-12T02:15:21.580Z,0
2017-01-12T02:16:21.433Z,0
2017-01-12T02:17:21.147Z,0
2017-01-12T02:18:21.458Z,0
2017-01-12T02:19:21.060Z,0
2017-01-12T02:20:20.675Z,0
2017-01-12T02:21:21.179Z,0
2017-01-12T02:22:21.480Z,0
2017-01-12T02:23:21.934Z,0
2017-01-12T02:24:21.595Z,0
2017-01-12T02:25:21.554Z,0
2017-01-12T02:26:21.657Z,0
2017-01-12T02:27:21.170Z,0
2017-01-12T02:28:21.520Z,0
2017-01-12T02:29:21.291Z,0
2017-01-12T02:30:21.684Z,0
2017-01-12T02:31:21.248Z,0
2017-01-12T02:32:21.603Z,0
2017-01-12T02:33:22.102Z,0
2017-01-12T02:34:21.614Z,0
2017-01-12T02:35:21.696Z,0
2017-01-12T02:36:21.240Z,0
2017-01-12T02:37:21.983Z,0
2017-01-12T02:38:21.648Z,0
2017-01-12T02:39:21.706Z,0
2017-01-12T02:40:20.914Z,0
2017-01-12T02:41:21.716Z,0
2017-01-12T02:42:22.073Z,0
2017-01-12T02:43:21.631Z,0
2017-01-12T02:44:22.031Z,0
2017-01-12T02:45:21.300Z,0
2017-01-12T02:46:21.699Z,0
2017-01-12T02:47:22.104Z,0
2017-01-12T02:48:21.271Z,0
2017-01-12T02:49:21.750Z,0
2017-01-12T02:50:21.780Z,0
2017-01-12T02:51:20.946Z,0
2017-01-12T02:52:21.353Z,0
2017-01-12T02:53:21.358Z,0
2017-01-12T02:54:21.863Z,0
2017-01-12T02:55:21.867Z,0
2017-01-12T02:56:22.121Z,0
2017-01-12T02:57:21.339Z,0
2017-01-12T02:58:22.186Z,0
2017-01-12T02:59:21.797Z,0
2017-01-12T03:00:21.409Z,0
2017-01-12T03:01:21.716Z,0
2017-01-12T03:02:21.869Z,0
2017-01-12T03:03:21.379Z,0
2017-01-12T03:04:21.042Z,0
2017-01-12T03:05:21.792Z,0
2017-01-12T03:06:21.796Z,0
2017-01-12T03:07:22.249Z,0
2017-01-12T03:08:21.465Z,0
2017-01-12T03:09:21.478Z,0
2017-01-12T03:10:22.217Z,0
2017-01-12T03:11:21.485Z,0
2017-01-12T03:12:21.493Z,0
2017-01-12T03:13:21.506Z,0
2017-01-12T03:14:21.906Z,0
2017-01-12T03:15:21.068Z,0
2017-01-12T03:16:21.572Z,0
2017-01-12T03:17:21.973Z,0
2017-01-12T03:18:21.939Z,0
2017-01-12T03:19:21.493Z,0
2017-01-12T03:20:22.347Z,0
2017-01-12T03:21:21.959Z,0
2017-01-12T03:22:21.618Z,0
2017-01-12T03:23:22.413Z,0
2017-01-12T03:24:21.580Z,0
2017-01-12T03:25:22.377Z,0
2017-01-12T03:26:21.938Z,0
2017-01-12T03:27:22.000Z,0
2017-01-12T03:28:36.434Z,0
2017-01-12T03:29:21.168Z,0
2017-01-12T03:30:21.675Z,0
2017-01-12T03:31:22.370Z,0
2017-01-12T03:32:22.090Z,0
2017-01-12T03:33:22.387Z,0
2017-01-12T03:34:22.063Z,0
2017-01-12T03:35:21.710Z,0
2017-01-12T03:36:22.159Z,0
2017-01-12T03:37:22.019Z,0
2017-01-12T03:38:21.683Z,0
2017-01-12T03:39:22.035Z,0
2017-01-12T03:40:21.642Z,0
2017-01-12T03:41:22.072Z,0
2017-01-12T03:42:21.310Z,0
2017-01-12T03:43:22.160Z,0
2017-01-12T03:44:21.769Z,0
2017-01-12T03:45:21.383Z,0
2017-01-12T03:46:21.700Z,0
2017-01-12T03:47:21.794Z,0
2017-01-12T03:48:21.751Z,0
2017-01-12T03:49:21.808Z,0
2017-01-12T03:50:22.563Z,0
2017-01-12T03:51:21.823Z,0
2017-01-12T03:52:21.732Z,0
2017-01-12T03:53:21.791Z,0
2017-01-12T03:54:22.240Z,0
2017-01-12T03:55:22.197Z,0
2017-01-12T03:56:22.200Z,0
2017-01-12T03:57:22.461Z,0
2017-01-12T03:58:21.821Z,0
2017-01-12T03:59:22.625Z,0
2017-01-12T04:00:22.239Z,0
2017-01-12T04:01:22.684Z,0
2017-01-12T04:02:22.591Z,0
2017-01-12T04:03:21.906Z,0
2017-01-12T04:04:22.210Z,0
2017-01-12T04:05:22.217Z,0
2017-01-12T04:06:21.830Z,0
2017-01-12T04:07:22.035Z,0
2017-01-12T04:08:22.291Z,0
2017-01-12T04:09:21.949Z,0
2017-01-12T04:10:21.969Z,0
2017-01-12T04:11:21.916Z,0
2017-01-12T04:12:22.371Z,0
2017-01-12T04:13:22.719Z,0
2017-01-12T04:14:22.383Z,0
2017-01-12T04:15:22.787Z,0
2017-01-12T04:16:21.952Z,0
2017-01-12T04:17:22.406Z,0
2017-01-12T04:18:22.313Z,0
2017-01-12T04:19:22.177Z,0
2017-01-12T04:20:21.933Z,0
2017-01-12T04:21:22.830Z,0
2017-01-12T04:22:22.093Z,0
2017-01-12T04:23:22.393Z,0
2017-01-12T04:24:22.006Z,0
2017-01-12T04:25:22.016Z,0
2017-01-12T04:26:22.815Z,0
2017-01-12T04:27:22.825Z,0
2017-01-12T04:28:39.169Z,0
2017-01-12T04:29:22.490Z,0
2017-01-12T04:30:22.001Z,0
2017-01-12T04:31:22.107Z,0
2017-01-12T04:32:21.615Z,0
2017-01-12T04:33:22.521Z,0
2017-01-12T04:34:22.871Z,0
2017-01-12T04:35:22.138Z,0
2017-01-12T04:36:22.145Z,0
2017-01-12T04:37:22.476Z,0
2017-01-12T04:38:22.848Z,0
2017-01-12T04:39:22.660Z,0
2017-01-12T04:40:22.169Z,0
2017-01-12T04:41:22.524Z,0
2017-01-12T04:42:22.578Z,0
2017-01-12T04:43:22.882Z,0
2017-01-12T04:44:22.943Z,0
2017-01-12T04:45:22.901Z,0
2017-01-12T04:46:22.113Z,0
2017-01-12T04:47:23.062Z,0
2017-01-12T04:48:21.781Z,0
2017-01-12T04:49:22.532Z,0
2017-01-12T04:50:22.935Z,0
2017-01-12T04:51:22.543Z,0
2017-01-12T04:52:22.629Z,0
2017-01-12T04:53:22.262Z,0
2017-01-12T04:54:22.271Z,0
2017-01-12T04:55:22.283Z,0
2017-01-12T04:56:22.283Z,0
2017-01-12T04:57:22.984Z,0
2017-01-12T04:58:22.699Z,0
2017-01-12T04:59:22.759Z,0
2017-01-12T05:00:22.707Z,0
2017-01-12T05:01:22.613Z,0
2017-01-12T05:02:23.121Z,0
2017-01-12T05:03:22.726Z,0
2017-01-12T05:04:22.636Z,0
2017-01-12T05:05:23.141Z,0
2017-01-12T05:06:21.966Z,0
2017-01-12T05:07:21.864Z,0
2017-01-12T05:08:22.021Z,0
2017-01-12T05:09:22.777Z,0
2017-01-12T05:10:22.334Z,0
2017-01-12T05:11:22.887Z,0
2017-01-12T05:12:22.296Z,0
2017-01-12T05:13:22.752Z,0
2017-01-12T05:14:22.705Z,0
2017-01-12T05:15:22.759Z,0
2017-01-12T05:16:22.770Z,0
2017-01-12T05:17:22.382Z,0
2017-01-12T05:18:23.231Z,0
2017-01-12T05:19:22.797Z,0
2017-01-12T05:20:22.451Z,0
2017-01-12T05:21:22.363Z,0
2017-01-12T05:22:22.726Z,0
2017-01-12T05:23:23.165Z,0
2017-01-12T05:24:22.434Z,0
2017-01-12T05:25:22.397Z,0
2017-01-12T05:26:23.143Z,0
2017-01-12T05:27:23.194Z,0
2017-01-12T05:28:23.251Z,0
2017-01-12T05:29:22.523Z,0
2017-01-12T05:30:22.869Z,0
2017-01-12T05:31:22.486Z,0
2017-01-12T05:32:22.486Z,0
2017-01-12T05:33:22.098Z,0
2017-01-12T05:34:23.292Z,0
2017-01-12T05:35:22.163Z,0
2017-01-12T05:36:22.467Z,0
2017-01-12T05:37:22.470Z,0
2017-01-12T05:38:22.534Z,0
2017-01-12T05:39:22.982Z,0
2017-01-12T05:40:22.594Z,0
2017-01-12T05:41:22.549Z,0
2017-01-12T05:42:22.511Z,0
2017-01-12T05:43:22.573Z,0
2017-01-12T05:44:22.587Z,0
2017-01-12T05:45:22.182Z,0
2017-01-12T05:46:22.938Z,0
2017-01-12T05:47:22.546Z,0
2017-01-12T05:48:22.627Z,0
2017-01-12T05:49:22.553Z,0
2017-01-12T05:50:23.013Z,0
2017-01-12T05:51:23.066Z,0
2017-01-12T05:52:22.631Z,0
2017-01-12T05:53:22.648Z,0
2017-01-12T05:54:23.036Z,0
2017-01-12T05:55:22.990Z,0
2017-01-12T05:56:23.051Z,0
2017-01-12T05:57:23.506Z,0
2017-01-12T05:58:22.669Z,0
2017-01-12T05:59:23.171Z,0
2017-01-12T06:00:22.686Z,0
2017-01-12T06:01:22.987Z,0
2017-01-12T06:02:22.696Z,0
2017-01-12T06:03:22.751Z,0
2017-01-12T06:04:22.763Z,0
2017-01-12T06:05:23.164Z,0
2017-01-12T06:06:23.122Z,0
2017-01-12T06:07:22.688Z,0
2017-01-12T06:08:22.739Z,0
2017-01-12T06:09:22.456Z,0
2017-01-12T06:10:23.549Z,0
2017-01-12T06:11:22.809Z,0
2017-01-12T06:12:22.719Z,0
2017-01-12T06:13:23.120Z,0
2017-01-12T06:14:22.841Z,0
2017-01-12T06:15:22.789Z,0
2017-01-12T06:16:23.295Z,0
2017-01-12T06:17:23.197Z,0
2017-01-12T06:18:23.602Z,0
2017-01-12T06:19:23.661Z,0
2017-01-12T06:20:23.269Z,0
2017-01-12T06:21:23.228Z,0
2017-01-12T06:22:23.236Z,0
2017-01-12T06:23:23.637Z,0
2017-01-12T06:24:23.251Z,0
2017-01-12T06:25:23.701Z,0
2017-01-12T06:26:23.262Z,0
2017-01-12T06:27:23.220Z,0
2017-01-12T06:28:52.586Z,0
2017-01-12T06:29:22.542Z,0
2017-01-12T06:30:22.894Z,0
2017-01-12T06:31:23.793Z,0
2017-01-12T06:32:22.908Z,0
2017-01-12T06:33:23.390Z,0
2017-01-12T06:34:23.716Z,0
2017-01-12T06:35:22.876Z,0
2017-01-12T06:36:23.775Z,0
2017-01-12T06:37:23.338Z,0
2017-01-12T06:38:22.583Z,0
2017-01-12T06:39:23.794Z,0
2017-01-12T06:40:22.914Z,0
2017-01-12T06:41:23.416Z,0
2017-01-12T06:42:23.767Z,0
2017-01-12T06:43:23.377Z,0
2017-01-12T06:44:22.991Z,0
2017-01-12T06:45:23.404Z,0
2017-01-12T06:46:23.059Z,0
2017-01-12T06:47:22.959Z,0
2017-01-12T06:48:23.466Z,0
2017-01-12T06:49:23.419Z,0
2017-01-12T06:50:23.427Z,0
2017-01-12T06:51:23.486Z,0
2017-01-12T06:52:22.998Z,0
2017-01-12T06:53:22.757Z,0
2017-01-12T06:54:23.805Z,0
2017-01-12T06:55:23.125Z,0
2017-01-12T06:56:22.726Z,0
2017-01-12T06:57:23.472Z,0
2017-01-12T06:58:23.483Z,0
2017-01-12T06:59:23.153Z,0
2017-01-12T07:00:23.100Z,0
2017-01-12T07:01:23.502Z,0
2017-01-12T07:02:23.460Z,0
2017-01-12T07:03:24.264Z,0
2017-01-12T07:04:23.919Z,0
2017-01-12T07:05:23.087Z,0
2017-01-12T07:06:23.140Z,0
2017-01-12T07:07:22.750Z,4
2017-01-12T07:08:23.500Z,0
2017-01-12T07:09:23.903Z,0
2017-01-12T07:10:23.121Z,4
2017-01-12T07:11:23.181Z,4
2017-01-12T07:12:23.975Z,4
2017-01-12T07:13:23.240Z,4
2017-01-12T07:14:23.986Z,4
2017-01-12T07:15:23.151Z,4
2017-01-12T07:16:23.310Z,4
2017-01-12T07:17:23.958Z,4
2017-01-12T07:18:22.881Z,4
2017-01-12T07:19:24.022Z,4
2017-01-12T07:20:22.908Z,4
2017-01-12T07:21:23.645Z,4
2017-01-12T07:22:24.092Z,4
2017-01-12T07:23:23.209Z,8
2017-01-12T07:24:23.265Z,4
2017-01-12T07:25:23.719Z,8
2017-01-12T07:26:23.280Z,8
2017-01-12T07:27:23.680Z,8
2017-01-12T07:28:38.173Z,12
2017-01-12T07:29:23.353Z,12
2017-01-12T07:30:23.750Z,12
2017-01-12T07:31:24.158Z,12
2017-01-12T07:32:24.166Z,12
2017-01-12T07:33:23.725Z,12
2017-01-12T07:34:23.764Z,12
2017-01-12T07:35:24.090Z,12
2017-01-12T07:36:23.743Z,16
2017-01-12T07:37:24.150Z,16
2017-01-12T07:38:23.067Z,16
2017-01-12T07:39:24.261Z,16
2017-01-12T07:40:22.932Z,20
2017-01-12T07:41:23.829Z,20
2017-01-12T07:42:24.535Z,24
2017-01-12T07:43:23.844Z,24
2017-01-12T07:44:23.404Z,24
2017-01-12T07:45:23.856Z,28
2017-01-12T07:46:23.830Z,28
2017-01-12T07:47:23.827Z,32
2017-01-12T07:48:23.485Z,36
2017-01-12T07:49:23.837Z,36
2017-01-12T07:50:23.101Z,44
2017-01-12T07:51:24.298Z,44
2017-01-12T07:52:23.073Z,48
2017-01-12T07:53:23.522Z,52
2017-01-12T07:54:23.513Z,52
2017-01-12T07:55:23.193Z,52
2017-01-12T07:56:23.545Z,48
2017-01-12T07:57:23.656Z,52
2017-01-12T07:58:23.116Z,60
2017-01-12T07:59:23.917Z,64
2017-01-12T08:00:23.524Z,72
2017-01-12T08:01:23.929Z,76
2017-01-12T08:02:23.984Z,84
2017-01-12T08:03:24.398Z,96
2017-01-12T08:04:24.199Z,104
2017-01-12T08:05:23.519Z,108
2017-01-12T08:06:23.965Z,116
2017-01-12T08:07:23.531Z,112
2017-01-12T08:08:24.031Z,116
2017-01-12T08:09:23.644Z,124
2017-01-12T08:10:24.001Z,124
2017-01-12T08:11:24.004Z,128
2017-01-12T08:12:24.476Z,132
2017-01-12T08:13:24.365Z,144
2017-01-12T08:14:23.732Z,160
2017-01-12T08:15:24.038Z,164
2017-01-12T08:16:24.145Z,164
2017-01-12T08:17:23.262Z,156
2017-01-12T08:18:24.856Z,152
2017-01-12T08:19:24.125Z,156
2017-01-12T08:20:24.332Z,164
2017-01-12T08:21:25.131Z,172
2017-01-12T08:22:24.193Z,180
2017-01-12T08:23:25.203Z,192
2017-01-12T08:24:24.504Z,200
2017-01-12T08:25:24.515Z,208
2017-01-12T08:26:25.919Z,216
2017-01-12T08:27:24.231Z,228
2017-01-12T08:28:24.298Z,236
2017-01-12T08:29:24.244Z,252
2017-01-12T08:30:25.698Z,260
2017-01-12T08:31:24.655Z,268
2017-01-12T08:32:24.679Z,272
2017-01-12T08:33:23.651Z,276
2017-01-12T08:34:24.339Z,276
2017-01-12T08:35:27.097Z,280
2017-01-12T08:36:23.903Z,284
2017-01-12T08:37:24.713Z,288
2017-01-12T08:38:23.971Z,300
2017-01-12T08:39:24.377Z,308
2017-01-12T08:40:24.240Z,324
2017-01-12T08:41:24.742Z,332
2017-01-12T08:42:24.297Z,352
2017-01-12T08:43:25.312Z,364
2017-01-12T08:44:24.910Z,400
2017-01-12T08:45:24.979Z,444
2017-01-12T08:46:25.939Z,672
2017-01-12T08:47:24.392Z,688
2017-01-12T08:48:23.553Z,756
2017-01-12T08:49:25.205Z,908
2017-01-12T08:50:24.074Z,928
2017-01-12T08:51:24.422Z,908
2017-01-12T08:52:24.484Z,952
2017-01-12T08:53:23.648Z,992
2017-01-12T08:54:24.402Z,1072
2017-01-12T08:55:24.514Z,1072
2017-01-12T08:56:25.711Z,1040
2017-01-12T08:57:23.632Z,1072
2017-01-12T08:58:25.483Z,1076
2017-01-12T08:59:24.584Z,1088
2017-01-12T09:00:26.055Z,988
2017-01-12T09:01:24.857Z,724
2017-01-12T09:02:24.325Z,676
2017-01-12T09:03:24.972Z,660
2017-01-12T09:04:25.389Z,608
2017-01-12T09:05:24.993Z,628
2017-01-12T09:06:25.551Z,688
2017-01-12T09:07:24.566Z,1012
2017-01-12T09:08:25.621Z,1108
2017-01-12T09:09:39.061Z,1272
2017-01-12T09:10:24.548Z,1408
2017-01-12T09:11:24.647Z,1524
2017-01-12T09:12:26.604Z,1560
2017-01-12T09:13:24.331Z,1508
2017-01-12T09:14:27.174Z,1320
2017-01-12T09:15:24.885Z,1340
2017-01-12T09:16:24.807Z,1360
2017-01-12T09:17:25.416Z,1360
2017-01-12T09:18:25.061Z,1380
2017-01-12T09:19:24.424Z,1124
2017-01-12T09:20:25.680Z,1408
2017-01-12T09:21:25.182Z,1528
2017-01-12T09:22:24.402Z,1584
2017-01-12T09:23:24.708Z,1420
2017-01-12T09:24:24.026Z,1568
2017-01-12T09:25:25.376Z,1568
2017-01-12T09:26:24.596Z,1476
2017-01-12T09:27:24.749Z,1540
2017-01-12T09:28:28.661Z,1440
2017-01-12T09:29:25.170Z,1588
2017-01-12T09:30:24.391Z,1572
2017-01-12T09:32:24.406Z,1672
2017-01-12T09:33:25.917Z,1544
2017-01-12T09:34:24.774Z,1520
2017-01-12T09:35:27.892Z,1316
2017-01-12T09:36:26.095Z,1432
2017-01-12T09:37:24.894Z,1444
2017-01-12T09:38:25.312Z,1420
2017-01-12T09:39:39.749Z,1376
2017-01-12T09:40:25.679Z,1408
2017-01-12T09:41:25.395Z,1380
2017-01-12T09:42:24.502Z,1508
2017-01-12T09:43:24.856Z,1544
2017-01-12T09:44:25.275Z,1504
2017-01-12T09:45:25.573Z,1552
2017-01-12T09:46:24.342Z,1440
2017-01-12T09:47:26.446Z,1000
2017-01-12T09:48:25.425Z,1684
2017-01-12T09:49:25.162Z,1788
2017-01-12T09:50:24.869Z,1776
2017-01-12T09:51:26.482Z,2016
2017-01-12T09:52:25.390Z,1980
2017-01-12T09:53:25.596Z,2120
2017-01-12T09:54:39.446Z,2308
2017-01-12T09:55:25.774Z,2180
2017-01-12T09:56:40.518Z,1696
2017-01-12T09:57:25.150Z,1672
2017-01-12T09:58:25.557Z,1664
2017-01-12T09:59:25.311Z,1600
2017-01-12T10:00:40.039Z,1640
2017-01-12T10:01:25.929Z,1680
2017-01-12T10:02:24.639Z,1288
2017-01-12T10:03:25.092Z,1200
2017-01-12T10:04:25.948Z,1068
2017-01-12T10:05:25.710Z,1036
2017-01-12T10:06:25.119Z,948
2017-01-12T10:07:24.830Z,852
2017-01-12T10:08:25.232Z,812
2017-01-12T10:09:25.443Z,760
2017-01-12T10:10:25.853Z,748
2017-01-12T10:11:25.713Z,744
2017-01-12T10:12:24.823Z,856
2017-01-12T10:13:25.829Z,856
2017-01-12T10:14:25.188Z,1020
2017-01-12T10:15:25.341Z,1052
2017-01-12T10:16:26.416Z,932
2017-01-12T10:17:25.163Z,980
2017-01-12T10:18:24.877Z,912
2017-01-12T10:19:25.279Z,880
2017-01-12T10:20:24.948Z,876
2017-01-12T10:21:24.852Z,824
2017-01-12T10:22:25.756Z,800
2017-01-12T10:23:25.662Z,752
2017-01-12T10:24:27.087Z,668
2017-01-12T10:25:24.884Z,684
2017-01-12T10:26:26.344Z,628
2017-01-12T10:27:41.026Z,652
2017-01-12T10:28:24.860Z,624
2017-01-12T10:29:27.523Z,628
2017-01-12T10:30:25.938Z,652
2017-01-12T10:31:26.282Z,612
2017-01-12T10:32:24.989Z,624
2017-01-12T10:33:25.305Z,624
2017-01-12T10:34:27.802Z,596
2017-01-12T10:35:25.815Z,604
2017-01-12T10:36:26.128Z,648
2017-01-12T10:37:24.589Z,656
2017-01-12T10:38:25.836Z,636
2017-01-12T10:39:25.394Z,608
2017-01-12T10:40:26.354Z,616
2017-01-12T10:41:27.176Z,620
2017-01-12T10:42:25.183Z,628
2017-01-12T10:43:25.380Z,620
2017-01-12T10:44:25.439Z,584
2017-01-12T10:45:26.699Z,520
2017-01-12T10:46:25.364Z,496
2017-01-12T10:47:25.407Z,468
2017-01-12T10:48:25.983Z,508
2017-01-12T10:49:25.432Z,520
2017-01-12T10:50:25.442Z,492
2017-01-12T10:51:25.516Z,496
2017-01-12T10:52:26.449Z,504
2017-01-12T10:53:25.513Z,528
2017-01-12T10:54:25.523Z,544
2017-01-12T10:55:28.686Z,556
2017-01-12T10:56:25.195Z,584
2017-01-12T10:57:25.545Z,592
2017-01-12T10:58:25.157Z,564
2017-01-12T10:59:25.612Z,524
2017-01-12T11:00:26.116Z,520
2017-01-12T11:01:27.082Z,524
2017-01-12T11:02:40.558Z,504
2017-01-12T11:03:26.237Z,496
2017-01-12T11:04:26.797Z,500
2017-01-12T11:05:26.760Z,508
2017-01-12T11:06:26.466Z,508
2017-01-12T11:07:25.625Z,520
2017-01-12T11:08:40.506Z,508
2017-01-12T11:09:25.242Z,512
2017-01-12T11:10:25.277Z,528
2017-01-12T11:11:25.606Z,540
2017-01-12T11:12:27.321Z,536
2017-01-12T11:13:25.618Z,536
2017-01-12T11:14:26.230Z,536
2017-01-12T11:15:26.086Z,548
2017-01-12T11:16:40.078Z,628
2017-01-12T11:18:25.760Z,636
2017-01-12T11:20:26.030Z,616
2017-01-12T11:21:27.692Z,620
2017-01-12T11:22:26.199Z,620
2017-01-12T11:23:26.754Z,636
2017-01-12T11:24:26.166Z,580
2017-01-12T11:25:25.372Z,588
2017-01-12T11:26:27.436Z,640
2017-01-12T11:27:26.236Z,632
2017-01-12T11:28:30.245Z,612
2017-01-12T11:29:26.657Z,624
2017-01-12T11:30:25.661Z,648
2017-01-12T11:31:27.015Z,652
2017-01-12T11:32:26.377Z,664
2017-01-12T11:33:25.981Z,648
2017-01-12T11:34:27.645Z,652
2017-01-12T11:35:25.502Z,596
2017-01-12T11:36:26.355Z,544
2017-01-12T11:37:25.878Z,576
2017-01-12T11:38:26.721Z,628
2017-01-12T11:39:28.144Z,688
2017-01-12T11:40:27.692Z,744
2017-01-12T11:41:25.905Z,776
2017-01-12T11:43:27.565Z,668
2017-01-12T11:44:26.819Z,664
2017-01-12T11:45:26.432Z,732
2017-01-12T11:46:27.834Z,756
2017-01-12T11:47:25.893Z,776
2017-01-12T11:48:26.303Z,804
2017-01-12T11:49:26.507Z,848
2017-01-12T11:50:28.116Z,816
2017-01-12T11:51:26.033Z,716
2017-01-12T11:52:26.783Z,716
2017-01-12T11:53:26.442Z,672
2017-01-12T11:54:26.947Z,700
2017-01-12T11:55:26.752Z,716
2017-01-12T11:56:25.523Z,740
2017-01-12T11:57:26.826Z,660
2017-01-12T11:58:26.440Z,640
2017-01-12T11:59:27.735Z,644
2017-01-12T12:00:25.703Z,660
2017-01-12T12:01:28.003Z,620
2017-01-12T12:02:26.846Z,596
2017-01-12T12:03:28.471Z,596
2017-01-12T12:04:25.681Z,572
2017-01-12T12:05:27.202Z,584
2017-01-12T12:06:26.102Z,580
2017-01-12T12:07:25.649Z,600
2017-01-12T12:08:25.760Z,600
2017-01-12T12:09:27.765Z,612
2017-01-12T12:10:26.625Z,640
2017-01-12T12:11:27.382Z,632
2017-01-12T12:12:27.646Z,576
2017-01-12T12:13:25.802Z,580
2017-01-12T12:14:29.715Z,568
2017-01-12T12:15:25.826Z,572
2017-01-12T12:16:25.826Z,608
2017-01-12T12:17:26.586Z,576
2017-01-12T12:18:43.570Z,632
2017-01-12T12:20:26.952Z,600
2017-01-12T12:21:26.363Z,612
2017-01-12T12:22:26.993Z,608
2017-01-12T12:23:27.492Z,552
2017-01-12T12:24:25.788Z,572
2017-01-12T12:25:40.335Z,568
2017-01-12T12:26:25.727Z,588
2017-01-12T12:27:26.221Z,596
2017-01-12T12:28:40.905Z,620
2017-01-12T12:29:26.984Z,632
2017-01-12T12:30:25.500Z,624
2017-01-12T12:31:26.292Z,608
2017-01-12T12:32:25.460Z,616
2017-01-12T12:33:25.865Z,616
2017-01-12T12:34:26.370Z,612
2017-01-12T12:35:25.835Z,620
2017-01-12T12:36:25.998Z,608
2017-01-12T12:37:25.998Z,624
2017-01-12T12:38:25.962Z,616
2017-01-12T12:39:26.758Z,608
2017-01-12T12:40:26.124Z,608
2017-01-12T12:41:26.980Z,604
2017-01-12T12:42:26.538Z,616
2017-01-12T12:43:25.946Z,620
2017-01-12T12:44:26.451Z,620
2017-01-12T12:45:26.311Z,600
2017-01-12T12:46:26.373Z,572
2017-01-12T12:47:26.033Z,580
2017-01-12T12:48:26.042Z,604
2017-01-12T12:49:26.510Z,624
2017-01-12T12:50:28.600Z,640
2017-01-12T12:51:26.463Z,632
2017-01-12T12:52:28.483Z,616
2017-01-12T12:53:26.769Z,620
2017-01-12T12:54:26.039Z,636
2017-01-12T12:55:26.113Z,648
2017-01-12T12:56:26.601Z,632
2017-01-12T12:57:26.063Z,600
2017-01-12T12:58:26.068Z,572
2017-01-12T12:59:26.527Z,548
2017-01-12T13:00:25.688Z,540
2017-01-12T13:01:26.097Z,544
2017-01-12T13:02:26.055Z,548
2017-01-12T13:03:26.506Z,540
2017-01-12T13:04:26.912Z,524
2017-01-12T13:05:26.167Z,508
2017-01-12T13:06:26.486Z,492
2017-01-12T13:07:26.493Z,504
2017-01-12T13:08:26.602Z,520
2017-01-12T13:09:26.110Z,540
2017-01-12T13:10:26.964Z,516
2017-01-12T13:11:26.727Z,512
2017-01-12T13:12:26.534Z,508
2017-01-12T13:13:25.748Z,572
2017-01-12T13:14:26.154Z,660
2017-01-12T13:15:26.222Z,612
2017-01-12T13:16:26.617Z,596
2017-01-12T13:17:25.830Z,576
2017-01-12T13:18:26.536Z,564
2017-01-12T13:19:26.988Z,572
2017-01-12T13:20:26.989Z,560
2017-01-12T13:21:26.606Z,528
2017-01-12T13:22:26.222Z,500
2017-01-12T13:23:26.677Z,508
2017-01-12T13:24:26.185Z,492
2017-01-12T13:25:26.690Z,512
2017-01-12T13:26:26.649Z,528
2017-01-12T13:27:27.149Z,548
2017-01-12T13:28:26.646Z,572
2017-01-12T13:29:26.227Z,580
2017-01-12T13:30:26.286Z,572
2017-01-12T13:31:26.652Z,580
2017-01-12T13:32:26.409Z,556
2017-01-12T13:33:27.011Z,544
2017-01-12T13:34:28.526Z,552
2017-01-12T13:35:26.870Z,572
2017-01-12T13:36:27.275Z,572
2017-01-12T13:37:27.842Z,564
2017-01-12T13:38:27.198Z,560
2017-01-12T13:39:28.204Z,516
2017-01-12T13:40:27.157Z,484
2017-01-12T13:41:27.271Z,476
2017-01-12T13:42:26.881Z,444
2017-01-12T13:43:25.997Z,416
2017-01-12T13:44:27.292Z,416
2017-01-12T13:45:26.871Z,420
2017-01-12T13:46:26.569Z,404
2017-01-12T13:47:26.473Z,392
2017-01-12T13:48:26.535Z,372
2017-01-12T13:49:26.446Z,360
2017-01-12T13:50:27.694Z,352
2017-01-12T13:51:27.353Z,336
2017-01-12T13:52:26.985Z,336
2017-01-12T13:53:26.577Z,332
2017-01-12T13:54:27.373Z,332
2017-01-12T13:55:26.739Z,324
2017-01-12T13:56:27.191Z,324
2017-01-12T13:57:26.506Z,316
2017-01-12T13:58:27.063Z,316
2017-01-12T13:59:26.570Z,312
2017-01-12T14:00:28.381Z,304
2017-01-12T14:01:27.011Z,300
2017-01-12T14:02:27.088Z,300
2017-01-12T14:03:27.037Z,296
2017-01-12T14:04:26.608Z,292
2017-01-12T14:05:27.371Z,288
2017-01-12T14:06:26.191Z,280
2017-01-12T14:07:28.790Z,272
2017-01-12T14:08:27.085Z,272
2017-01-12T14:09:27.483Z,268
2017-01-12T14:10:27.483Z,268
2017-01-12T14:11:27.065Z,260
2017-01-12T14:12:27.569Z,260
2017-01-12T14:13:26.682Z,260
2017-01-12T14:14:27.039Z,264
2017-01-12T14:15:27.198Z,264
2017-01-12T14:16:27.111Z,268
2017-01-12T14:17:26.766Z,264
2017-01-12T14:18:26.428Z,268
2017-01-12T14:19:27.524Z,268
2017-01-12T14:20:27.584Z,268